Austin, Texas
Traffic Map
Current Weather Conditions
Austin, Texas
Clear
Clear
22°
Feels Like: 22°
Wind Chill: 22° Ceiling: Unl
Heat Index: 22° Visibility: 10mi
Dew Point: Wind: 6mph
Humidity: 26% Direction: ° ()
Pressure: 30.29in Gusts: 0mph
Raw Report DataKATT 101951Z AUTO VRB05KT 10SM CLR 22/01 A3029 RMK AO2 SLP253 T02170011
Traffic Incident Summary
Active as of:
Severity:
Category:
InformationThere was an issue retrieving the traffic information for this location. Please try a different location or try again shortly.
Advertisements
Track Severe Weather on mobile